Time;durP1;ratioP1;P1;durP2;ratioP2;P2;SDS_P1;SDS_P2;PMS_P1;PMS_P2;Temp;Humidity;BMP_temperature;BMP_pressure;BME280_temperature;BME280_humidity;BME280_pressure;Samples;Min_cycle;Max_cycle;Signal;HPM_P1;HPM_P2
2024/04/11 00:02:07;;;;;;;;;;;;;;;2.53;95.56;100026.09;5373538;26;19930;-92
2024/04/11 00:04:33;;;;;;;;;;;;;;;2.40;95.78;100031.16;5383671;26;20023;-91
2024/04/11 00:06:58;;;;;;;;;;;;;;;2.42;95.82;100025.22;5381317;26;19942;-90
2024/04/11 00:09:24;;;;;;;;;;;;;;;2.20;95.62;100022.53;5408867;26;20259;-90
2024/04/11 00:11:49;;;;;;;;;;;;;;;1.94;96.26;100020.38;5382143;26;19937;-89
2024/04/11 00:14:14;;;;;;;;;;;;;;;1.95;96.02;100024.84;5381213;26;19936;-92
2024/04/11 00:16:40;;;;;;;;;;;;;;;1.75;96.68;100020.53;5394472;26;19981;-90
2024/04/11 00:19:05;;;;;;;;;;;;;;;1.60;97.29;100018.34;5376183;26;19937;-96
2024/04/11 00:21:31;;;;;;;;;;;;;;;1.60;97.92;100014.00;5378548;26;19937;-95
2024/04/11 00:23:57;;;;;;;;;;;;;;;1.91;97.35;100003.41;5385646;26;19945;-92
2024/04/11 00:26:23;;;;;;;;;;;;;;;1.71;97.93;99997.41;5383987;26;19961;-94
2024/04/11 00:28:49;;;;;;;;;;;;;;;1.97;97.53;99996.03;5381442;26;19929;-93
2024/04/11 00:31:15;;;;;;;;;;;;;;;1.69;96.90;100000.72;5408003;26;19929;-91
2024/04/11 00:33:54;;;;;;;;;;;;;;;1.74;97.71;99991.50;5366076;26;19980;-92
2024/04/11 00:36:23;;;;;;;;;;;;;;;1.56;98.24;99996.13;5386923;26;19930;-91
2024/04/11 00:38:50;;;;;;;;;;;;;;;1.78;97.81;99996.22;5362959;26;19930;-90
2024/04/11 00:41:17;;;;;;;;;;;;;;;1.63;98.25;99993.22;5376994;26;19954;-91
2024/04/11 00:43:42;;;;;;;;;;;;;;;1.68;97.91;99991.91;5374415;26;19930;-90
2024/04/11 00:46:09;;;;;;;;;;;;;;;1.72;98.25;99998.31;5379329;26;19930;-90
2024/04/11 00:48:37;;;;;;;;;;;;;;;1.86;98.42;100007.38;5370129;26;19937;-91
2024/04/11 00:51:03;;;;;;;;;;;;;;;1.82;98.15;99995.69;5369541;26;19937;-89
2024/04/11 00:53:30;;;;;;;;;;;;;;;1.81;98.23;99993.81;5368822;26;19992;-91
2024/04/11 00:55:56;;;;;;;;;;;;;;;1.86;98.56;99999.47;5379330;26;19954;-90
2024/04/11 00:58:22;;;;;;;;;;;;;;;1.57;98.61;100002.28;5428989;26;20275;-90
2024/04/11 01:00:48;;;;;;;;;;;;;;;1.58;99.90;99993.59;5376388;26;19929;-90
2024/04/11 01:03:14;;;;;;;;;;;;;;;1.52;100.00;99983.50;5353109;26;19936;-89
2024/04/11 01:05:39;;;;;;;;;;;;;;;1.39;100.00;99986.81;5370796;26;19930;-91
2024/04/11 01:08:09;;;;;;;;;;;;;;;1.46;100.00;99993.50;5366021;26;19930;-90
2024/04/11 01:10:35;;;;;;;;;;;;;;;1.48;99.86;99998.09;5367662;26;19930;-92
2024/04/11 01:13:02;;;;;;;;;;;;;;;1.28;99.53;99987.59;5370395;26;19940;-91
2024/04/11 01:15:27;;;;;;;;;;;;;;;1.11;99.57;99987.88;5434927;26;19930;-91
2024/04/11 01:17:52;;;;;;;;;;;;;;;1.27;100.00;99998.91;5382154;26;19930;-90
2024/04/11 01:20:18;;;;;;;;;;;;;;;1.44;100.00;100002.97;5379020;26;19929;-91
2024/04/11 01:22:43;;;;;;;;;;;;;;;1.70;99.96;100000.81;5380995;26;19937;-91
2024/04/11 01:25:09;;;;;;;;;;;;;;;1.73;100.00;99993.19;5377973;26;20049;-90
2024/04/11 01:27:35;;;;;;;;;;;;;;;1.67;100.00;99997.94;5379203;26;19941;-92
2024/04/11 01:30:02;;;;;;;;;;;;;;;1.66;100.00;99997.81;5347510;26;19999;-90
2024/04/11 01:32:28;;;;;;;;;;;;;;;1.33;100.00;99998.50;5380308;26;19933;-90
2024/04/11 01:34:56;;;;;;;;;;;;;;;1.27;100.00;100004.16;5405691;26;20044;-91
2024/04/11 01:37:23;;;;;;;;;;;;;;;1.24;100.00;100017.94;5346100;26;19938;-90
2024/04/11 01:39:49;;;;;;;;;;;;;;;1.31;100.00;100007.97;5368550;26;20003;-90
2024/04/11 01:42:14;;;;;;;;;;;;;;;1.19;100.00;100013.09;5350809;26;20347;-91
2024/04/11 01:44:39;;;;;;;;;;;;;;;1.25;100.00;100009.28;5347569;26;19930;-92
2024/04/11 01:47:05;;;;;;;;;;;;;;;1.18;100.00;100021.75;5376124;26;19937;-90
2024/04/11 01:49:31;;;;;;;;;;;;;;;1.06;100.00;100015.47;5381613;26;19929;-89
2024/04/11 01:51:57;;;;;;;;;;;;;;;1.15;100.00;100011.94;5434681;26;19934;-91
2024/04/11 01:54:22;;;;;;;;;;;;;;;0.84;100.00;100012.66;5352329;26;19936;-90
2024/04/11 01:56:47;;;;;;;;;;;;;;;1.16;100.00;100013.75;5342881;26;19930;-90
2024/04/11 01:59:13;;;;;;;;;;;;;;;1.15;100.00;100021.47;5420698;26;20354;-90
2024/04/11 02:01:38;;;;;;;;;;;;;;;0.97;100.00;100007.69;5371812;26;19930;-89
2024/04/11 02:04:05;;;;;;;;;;;;;;;0.91;100.00;100010.72;5380648;26;19929;-90
2024/04/11 02:06:32;;;;;;;;;;;;;;;0.92;100.00;100009.91;5380933;26;19980;-90
2024/04/11 02:08:57;;;;;;;;;;;;;;;0.95;100.00;100009.25;5349176;26;20811;-92
2024/04/11 02:11:23;;;;;;;;;;;;;;;0.80;99.94;100010.53;5402289;26;19938;-90
2024/04/11 02:13:48;;;;;;;;;;;;;;;0.71;100.00;100005.41;5421747;26;20822;-91
2024/04/11 02:16:14;;;;;;;;;;;;;;;0.69;100.00;100005.28;5376938;26;19929;-91
2024/04/11 02:18:40;;;;;;;;;;;;;;;0.49;100.00;100007.84;5376594;26;19930;-91
2024/04/11 02:21:06;;;;;;;;;;;;;;;0.21;100.00;100000.13;5364453;26;19933;-90
2024/04/11 02:23:31;;;;;;;;;;;;;;;0.51;100.00;100007.19;5423126;26;20546;-90
2024/04/11 02:25:58;;;;;;;;;;;;;;;0.57;100.00;100001.56;5378658;26;19930;-90
2024/04/11 02:28:24;;;;;;;;;;;;;;;0.81;100.00;100012.38;5396004;26;19937;-89
2024/04/11 02:30:53;;;;;;;;;;;;;;;0.73;100.00;100015.28;5373092;26;19930;-88
2024/04/11 02:33:19;;;;;;;;;;;;;;;0.94;100.00;100015.31;5371858;26;19940;-89
2024/04/11 02:35:44;;;;;;;;;;;;;;;0.66;100.00;100023.38;5375422;26;19933;-89
2024/04/11 02:38:09;;;;;;;;;;;;;;;0.40;100.00;100021.06;5407550;26;19936;-90
2024/04/11 02:40:35;;;;;;;;;;;;;;;0.61;100.00;100022.06;5365806;26;19929;-89
2024/04/11 02:43:00;;;;;;;;;;;;;;;0.43;100.00;100023.03;5371489;26;19954;-90
2024/04/11 02:45:27;;;;;;;;;;;;;;;0.57;100.00;100025.19;5454248;26;19936;-90
2024/04/11 02:47:52;;;;;;;;;;;;;;;0.43;100.00;100029.25;5380759;26;19995;-90
2024/04/11 02:50:23;;;;;;;;;;;;;;;0.54;100.00;100024.94;5385103;26;19946;-89
2024/04/11 02:52:48;;;;;;;;;;;;;;;0.27;100.00;100019.84;5348170;26;19958;-89
2024/04/11 02:55:14;;;;;;;;;;;;;;;0.51;100.00;100024.66;5377762;26;19936;-90
2024/04/11 02:57:42;;;;;;;;;;;;;;;0.32;100.00;100026.41;5369522;26;19937;-90
2024/04/11 03:00:09;;;;;;;;;;;;;;;0.34;100.00;100028.41;5379698;26;20333;-90
2024/04/11 03:02:35;;;;;;;;;;;;;;;0.41;100.00;100025.53;5378513;26;19937;-91
2024/04/11 03:05:00;;;;;;;;;;;;;;;0.41;100.00;100030.78;5370750;26;20433;-92
2024/04/11 03:07:29;;;;;;;;;;;;;;;0.51;100.00;100027.28;5365924;26;19930;-90
2024/04/11 03:09:55;;;;;;;;;;;;;;;0.44;100.00;100028.44;5369916;26;19937;-92
2024/04/11 03:12:20;;;;;;;;;;;;;;;0.60;100.00;100035.06;5369500;26;19941;-91
2024/04/11 03:14:46;;;;;;;;;;;;;;;0.58;100.00;100034.94;5423305;26;19950;-90
2024/04/11 03:17:12;;;;;;;;;;;;;;;0.36;100.00;100029.47;5368111;26;20374;-89
2024/04/11 03:19:38;;;;;;;;;;;;;;;0.54;100.00;100040.69;5359943;26;20363;-90
2024/04/11 03:22:03;;;;;;;;;;;;;;;0.36;100.00;100036.41;5364724;26;19930;-90
2024/04/11 03:24:29;;;;;;;;;;;;;;;0.21;100.00;100042.13;5439062;26;19975;-92
2024/04/11 03:26:54;;;;;;;;;;;;;;;0.21;100.00;100043.84;5374586;26;19935;-92
2024/04/11 03:29:20;;;;;;;;;;;;;;;-0.01;100.00;100039.25;5381193;26;19930;-94
2024/04/11 03:31:45;;;;;;;;;;;;;;;0.34;100.00;100033.66;5367161;26;19938;-92
2024/04/11 03:34:10;;;;;;;;;;;;;;;0.13;100.00;100039.59;5405797;26;19936;-93
2024/04/11 03:36:36;;;;;;;;;;;;;;;0.42;100.00;100036.97;5375836;26;19929;-93
2024/04/11 03:39:11;;;;;;;;;;;;;;;0.20;100.00;100039.38;5395679;26;19985;-95
2024/04/11 03:41:37;;;;;;;;;;;;;;;0.15;100.00;100041.59;5385726;26;19945;-93
2024/04/11 03:44:03;;;;;;;;;;;;;;;0.31;100.00;100043.88;5390142;26;19936;-93
2024/04/11 03:46:28;;;;;;;;;;;;;;;0.16;100.00;100039.88;5374266;26;19930;-91
2024/04/11 03:48:57;;;;;;;;;;;;;;;0.39;100.00;100039.31;5353412;26;19930;-91
2024/04/11 03:51:22;;;;;;;;;;;;;;;0.40;100.00;100036.81;5366562;26;19934;-92
2024/04/11 03:53:51;;;;;;;;;;;;;;;0.29;100.00;100041.88;5381730;26;19937;-92
2024/04/11 03:56:22;;;;;;;;;;;;;;;0.56;100.00;100044.34;5421573;26;19976;-92
2024/04/11 03:58:48;;;;;;;;;;;;;;;0.26;100.00;100050.41;5396617;26;20348;-92
2024/04/11 04:01:15;;;;;;;;;;;;;;;0.28;100.00;100047.91;5382254;26;19930;-92
2024/04/11 04:03:41;;;;;;;;;;;;;;;0.18;100.00;100056.66;5418913;26;19961;-92
2024/04/11 04:06:06;;;;;;;;;;;;;;;-0.06;100.00;100051.03;5385271;26;19929;-91
2024/04/11 04:08:33;;;;;;;;;;;;;;;-0.03;100.00;100045.16;5385875;26;19938;-91
2024/04/11 04:10:59;;;;;;;;;;;;;;;-0.01;100.00;100049.75;5381846;26;20305;-91
2024/04/11 04:13:26;;;;;;;;;;;;;;;0.10;100.00;100047.19;5438265;26;19942;-92
2024/04/11 04:15:54;;;;;;;;;;;;;;;-0.01;100.00;100044.50;5431617;26;19929;-94
2024/04/11 04:18:22;;;;;;;;;;;;;;;0.18;100.00;100046.16;5354952;26;19929;-91
2024/04/11 04:20:59;;;;;;;;;;;;;;;0.01;100.00;100054.22;5387612;26;19961;-92
2024/04/11 04:23:24;;;;;;;;;;;;;;;-0.15;100.00;100063.28;5430391;26;20256;-90
2024/04/11 04:26:00;;;;;;;;;;;;;;;-0.17;100.00;100072.72;5444664;26;19936;-92
2024/04/11 04:28:30;;;;;;;;;;;;;;;-0.21;100.00;100075.84;5397003;26;19929;-91
2024/04/11 04:31:10;;;;;;;;;;;;;;;-0.04;100.00;100074.78;5385739;26;19938;-91
2024/04/11 04:33:37;;;;;;;;;;;;;;;-0.06;100.00;100071.09;5384952;26;19957;-92
2024/04/11 04:36:03;;;;;;;;;;;;;;;-0.35;100.00;100071.94;5381012;26;19937;-91
2024/04/11 04:38:29;;;;;;;;;;;;;;;-0.30;100.00;100075.91;5380535;26;19981;-90
2024/04/11 04:40:55;;;;;;;;;;;;;;;0.02;100.00;100077.06;5365066;26;19929;-91
2024/04/11 04:43:20;;;;;;;;;;;;;;;0.04;100.00;100075.47;5384229;26;19936;-91
2024/04/11 04:45:46;;;;;;;;;;;;;;;0.05;100.00;100080.88;5413990;26;19930;-92
2024/04/11 04:48:12;;;;;;;;;;;;;;;0.22;100.00;100082.41;5359279;26;19992;-92
2024/04/11 04:50:40;;;;;;;;;;;;;;;0.20;100.00;100084.91;5419551;26;19930;-92
2024/04/11 04:53:05;;;;;;;;;;;;;;;0.17;100.00;100088.94;5442960;26;20314;-93
2024/04/11 04:55:31;;;;;;;;;;;;;;;0.07;100.00;100095.06;5384808;26;19930;-90
2024/04/11 04:57:57;;;;;;;;;;;;;;;0.05;100.00;100100.94;5351288;26;19999;-92
2024/04/11 05:00:24;;;;;;;;;;;;;;;0.21;100.00;100098.94;5422819;26;20449;-91
2024/04/11 05:02:52;;;;;;;;;;;;;;;0.03;100.00;100107.75;5375961;26;19977;-92
2024/04/11 05:05:18;;;;;;;;;;;;;;;0.13;100.00;100108.72;5435752;26;19995;-91
2024/04/11 05:07:45;;;;;;;;;;;;;;;0.10;100.00;100111.09;5380220;26;19930;-92
2024/04/11 05:10:10;;;;;;;;;;;;;;;0.19;100.00;100117.19;5384133;26;19929;-91
2024/04/11 05:12:43;;;;;;;;;;;;;;;0.16;100.00;100110.72;5423702;26;19937;-90
2024/04/11 05:15:12;;;;;;;;;;;;;;;0.41;100.00;100113.88;5351123;26;19937;-91
2024/04/11 05:18:10;;;;;;;;;;;;;;;0.45;100.00;100110.75;5409547;26;20054;-90
2024/04/11 05:24:04;;;;;;;;;;;;;;;0.84;100.00;100118.66;5352319;26;19977;-92
2024/04/11 05:26:31;;;;;;;;;;;;;;;1.06;100.00;100132.00;5332125;26;20344;-92
2024/04/11 05:29:01;;;;;;;;;;;;;;;1.11;100.00;100135.97;5371341;26;19929;-92
2024/04/11 05:31:28;;;;;;;;;;;;;;;1.24;99.58;100136.22;5352309;26;19930;-91
2024/04/11 05:33:55;;;;;;;;;;;;;;;1.52;98.25;100128.13;5365750;26;19929;-91
2024/04/11 05:36:25;;;;;;;;;;;;;;;1.63;97.79;100130.00;5355003;26;19929;-93
2024/04/11 05:38:52;;;;;;;;;;;;;;;1.98;96.96;100121.56;5349739;26;19940;-92
2024/04/11 05:41:20;;;;;;;;;;;;;;;2.02;97.03;100127.22;5367890;26;20354;-92
2024/04/11 05:43:49;;;;;;;;;;;;;;;2.18;96.67;100128.50;5359490;26;19933;-93
2024/04/11 05:46:15;;;;;;;;;;;;;;;2.54;95.71;100125.41;5355573;26;19937;-92
2024/04/11 05:48:41;;;;;;;;;;;;;;;2.48;94.82;100120.53;5379189;26;20316;-91
2024/04/11 05:51:06;;;;;;;;;;;;;;;2.49;92.92;100127.66;5314136;26;19941;-93
2024/04/11 05:53:35;;;;;;;;;;;;;;;2.61;92.21;100119.84;5318395;26;19962;-91
2024/04/11 05:56:04;;;;;;;;;;;;;;;2.79;92.68;100113.47;5330452;26;19937;-92
2024/04/11 05:58:29;;;;;;;;;;;;;;;2.87;93.29;100116.69;5348216;26;20370;-92
2024/04/11 06:00:56;;;;;;;;;;;;;;;3.03;92.36;100125.06;5378468;26;19930;-93
2024/04/11 06:03:22;;;;;;;;;;;;;;;3.34;90.79;100123.16;5345027;26;19930;-90
2024/04/11 06:05:48;;;;;;;;;;;;;;;3.43;91.88;100128.25;5402260;26;19937;-94
2024/04/11 06:08:13;;;;;;;;;;;;;;;3.79;91.07;100134.59;5375080;26;19930;-89
2024/04/11 06:10:40;;;;;;;;;;;;;;;4.05;90.78;100132.25;5323582;26;19937;-92
2024/04/11 06:13:06;;;;;;;;;;;;;;;4.28;89.35;100135.75;5361752;26;19937;-92
2024/04/11 06:15:31;;;;;;;;;;;;;;;4.50;88.77;100133.00;5366123;26;19930;-92
2024/04/11 06:17:57;;;;;;;;;;;;;;;4.71;88.65;100134.63;5308350;26;20050;-93
2024/04/11 06:20:24;;;;;;;;;;;;;;;4.87;87.69;100137.56;5346901;26;19934;-93
2024/04/11 06:22:52;;;;;;;;;;;;;;;5.10;87.62;100139.28;5380006;26;19932;-92
2024/04/11 06:25:18;;;;;;;;;;;;;;;5.56;86.28;100139.97;5366144;26;19930;-93
2024/04/11 06:27:43;;;;;;;;;;;;;;;5.80;86.33;100138.13;5336786;26;19953;-91
2024/04/11 06:30:14;;;;;;;;;;;;;;;6.04;84.80;100143.34;5378010;26;19999;-92
2024/04/11 06:32:40;;;;;;;;;;;;;;;6.20;83.98;100135.63;5317861;26;19930;-91
2024/04/11 06:35:06;;;;;;;;;;;;;;;6.15;81.11;100137.03;5293780;26;19934;-91
2024/04/11 06:37:31;;;;;;;;;;;;;;;5.71;81.68;100137.47;5364977;26;20364;-88
2024/04/11 06:39:58;;;;;;;;;;;;;;;6.36;80.75;100133.19;5402956;26;19929;-92
2024/04/11 06:42:24;;;;;;;;;;;;;;;6.61;79.83;100129.56;5351326;26;19940;-91
2024/04/11 06:44:49;;;;;;;;;;;;;;;7.31;82.23;100125.31;5334271;26;19931;-92
2024/04/11 06:47:16;;;;;;;;;;;;;;;7.71;78.88;100129.69;5350623;26;19980;-93
2024/04/11 06:49:42;;;;;;;;;;;;;;;7.84;79.01;100149.06;5355066;26;20003;-90
2024/04/11 06:52:16;;;;;;;;;;;;;;;7.95;79.24;100140.00;5344441;26;20715;-91
2024/04/11 06:54:43;;;;;;;;;;;;;;;8.12;74.31;100135.72;5357739;26;19938;-90
2024/04/11 06:57:11;;;;;;;;;;;;;;;8.38;75.56;100127.63;5320718;26;20702;-89
2024/04/11 06:59:36;;;;;;;;;;;;;;;8.92;73.97;100131.72;5384649;26;19938;-90
2024/04/11 07:02:06;;;;;;;;;;;;;;;9.38;72.81;100123.69;5344280;26;19938;-89
2024/04/11 07:04:32;;;;;;;;;;;;;;;9.85;71.09;100130.72;5357478;26;19934;-89
2024/04/11 07:07:08;;;;;;;;;;;;;;;10.26;69.23;100121.41;5315672;26;19936;-92
2024/04/11 07:09:37;;;;;;;;;;;;;;;10.74;69.69;100119.44;5353095;26;19938;-92
2024/04/11 07:12:10;;;;;;;;;;;;;;;10.95;65.87;100125.84;5390877;26;20028;-91
2024/04/11 07:14:38;;;;;;;;;;;;;;;11.20;64.08;100135.06;5349986;26;19930;-90
2024/04/11 07:17:11;;;;;;;;;;;;;;;11.37;63.67;100139.47;5402447;26;19930;-92
2024/04/11 07:19:37;;;;;;;;;;;;;;;11.23;60.83;100130.78;5403477;26;19951;-93
2024/04/11 07:22:08;;;;;;;;;;;;;;;11.70;59.47;100124.16;5355317;26;19930;-92
2024/04/11 07:24:35;;;;;;;;;;;;;;;12.28;58.56;100124.16;5391691;26;19938;-91
2024/04/11 07:27:03;;;;;;;;;;;;;;;12.84;56.75;100122.13;5410992;26;19937;-91
2024/04/11 07:29:29;;;;;;;;;;;;;;;12.94;57.53;100126.13;5343938;26;20000;-92
2024/04/11 07:31:55;;;;;;;;;;;;;;;13.19;55.89;100122.69;5388129;26;19930;-91
2024/04/11 07:34:23;;;;;;;;;;;;;;;13.70;54.23;100126.56;5318990;26;19937;-91
2024/04/11 07:36:51;;;;;;;;;;;;;;;12.91;56.22;100131.34;5327891;26;20373;-93
2024/04/11 07:39:17;;;;;;;;;;;;;;;13.93;53.61;100130.13;5363875;26;20359;-91
2024/04/11 07:41:45;;;;;;;;;;;;;;;13.86;51.97;100125.41;5363860;26;19930;-92
2024/04/11 07:44:11;;;;;;;;;;;;;;;14.21;50.95;100120.44;5395323;26;19929;-92
2024/04/11 07:46:37;;;;;;;;;;;;;;;14.53;51.12;100127.91;5367932;26;19930;-93
2024/04/11 07:49:07;;;;;;;;;;;;;;;14.75;49.01;100120.59;5339801;26;19937;-91
2024/04/11 07:51:33;;;;;;;;;;;;;;;14.82;49.75;100117.28;5322374;26;19930;-95
2024/04/11 07:53:59;;;;;;;;;;;;;;;14.87;50.26;100115.66;5377860;26;19929;-96
2024/04/11 07:56:25;;;;;;;;;;;;;;;15.38;50.50;100108.41;5373427;26;19930;-93
2024/04/11 07:58:55;;;;;;;;;;;;;;;15.24;51.76;100103.47;5381577;26;19937;-92
2024/04/11 08:01:36;;;;;;;;;;;;;;;15.53;50.90;100102.59;5331177;26;19937;-92
2024/04/11 08:04:02;;;;;;;;;;;;;;;15.90;50.70;100098.34;5362281;26;19930;-91
2024/04/11 08:06:28;;;;;;;;;;;;;;;15.84;48.60;100103.56;5359785;26;19936;-92
2024/04/11 08:08:54;;;;;;;;;;;;;;;16.48;46.73;100099.09;5336975;26;19930;-91
2024/04/11 08:11:20;;;;;;;;;;;;;;;16.45;46.31;100099.97;5386301;26;19933;-91
2024/04/11 08:13:47;;;;;;;;;;;;;;;16.55;45.02;100101.13;5337783;26;19937;-90
2024/04/11 08:16:12;;;;;;;;;;;;;;;16.81;44.44;100104.53;5371637;26;20258;-91
2024/04/11 08:18:38;;;;;;;;;;;;;;;16.74;43.86;100107.94;5379606;26;19930;-90
2024/04/11 08:21:08;;;;;;;;;;;;;;;17.00;42.96;100120.31;5373903;26;19930;-89
2024/04/11 08:23:37;;;;;;;;;;;;;;;16.81;42.93;100112.63;5355743;26;19929;-91
2024/04/11 08:26:04;;;;;;;;;;;;;;;16.09;44.41;100121.34;5367127;26;19936;-91
2024/04/11 08:28:29;;;;;;;;;;;;;;;16.60;43.60;100119.22;5339983;26;20311;-91
2024/04/11 08:30:55;;;;;;;;;;;;;;;16.43;42.87;100115.16;5397908;26;20413;-91
2024/04/11 08:33:20;;;;;;;;;;;;;;;16.83;42.41;100116.28;5386684;26;19930;-91
2024/04/11 08:35:47;;;;;;;;;;;;;;;17.23;41.35;100115.50;5337874;26;20048;-90
2024/04/11 08:38:15;;;;;;;;;;;;;;;17.72;39.53;100108.56;5330363;26;19930;-91
2024/04/11 08:40:44;;;;;;;;;;;;;;;18.16;38.11;100104.19;5391748;26;19937;-91
2024/04/11 08:43:15;;;;;;;;;;;;;;;18.56;37.78;100110.34;5322615;26;19935;-91
2024/04/11 08:45:42;;;;;;;;;;;;;;;18.62;38.45;100113.16;5382443;26;19961;-91
2024/04/11 08:48:07;;;;;;;;;;;;;;;17.77;41.30;100111.38;5367403;26;19930;-90
2024/04/11 08:50:34;;;;;;;;;;;;;;;17.34;42.91;100114.00;5374720;26;19980;-90
2024/04/11 08:53:00;;;;;;;;;;;;;;;18.31;40.02;100110.78;5374253;26;19930;-89
2024/04/11 08:55:26;;;;;;;;;;;;;;;18.54;40.00;100109.44;5361592;26;19930;-90
2024/04/11 08:57:52;;;;;;;;;;;;;;;17.50;41.33;100106.25;5343369;26;19957;-90
2024/04/11 09:00:23;;;;;;;;;;;;;;;17.55;42.07;100101.88;5366505;26;19930;-90
2024/04/11 09:02:51;;;;;;;;;;;;;;;17.63;41.65;100102.94;5375340;26;20397;-90
2024/04/11 09:05:16;;;;;;;;;;;;;;;19.43;37.23;100097.47;5365318;26;19936;-92
2024/04/11 09:07:45;;;;;;;;;;;;;;;19.16;36.77;100104.28;5405439;26;19929;-90
2024/04/11 09:10:12;;;;;;;;;;;;;;;18.91;35.99;100104.72;5389374;26;20007;-90
2024/04/11 09:12:38;;;;;;;;;;;;;;;18.77;35.93;100106.25;5310489;26;19930;-90
2024/04/11 09:15:09;;;;;;;;;;;;;;;18.97;36.96;100107.53;5381497;26;19959;-90
2024/04/11 09:17:43;;;;;;;;;;;;;;;19.52;35.61;100108.44;5324092;26;19937;-91
2024/04/11 09:20:12;;;;;;;;;;;;;;;19.69;35.62;100109.66;5337284;26;19937;-89
2024/04/11 09:22:46;;;;;;;;;;;;;;;19.91;34.80;100109.94;5330930;26;19937;-88
2024/04/11 09:25:13;;;;;;;;;;;;;;;19.83;34.14;100104.41;5360135;26;19934;-90
2024/04/11 09:27:42;;;;;;;;;;;;;;;19.87;34.11;100106.25;5319857;26;19981;-90
2024/04/11 09:30:08;;;;;;;;;;;;;;;19.59;34.41;100101.31;5373588;26;20348;-90
2024/04/11 09:32:36;;;;;;;;;;;;;;;18.51;36.23;100108.47;5354134;26;20009;-90
2024/04/11 09:35:05;;;;;;;;;;;;;;;20.14;32.65;100102.13;5313282;26;19930;-89
2024/04/11 09:37:32;;;;;;;;;;;;;;;19.97;33.05;100112.72;5345645;26;19978;-89
2024/04/11 09:40:11;;;;;;;;;;;;;;;20.58;32.17;100116.22;5392436;26;19930;-90
2024/04/11 09:42:39;;;;;;;;;;;;;;;20.91;31.13;100107.53;5383834;26;19930;-90
2024/04/11 09:45:10;;;;;;;;;;;;;;;21.16;30.70;100119.50;5331731;26;20831;-90
2024/04/11 09:47:38;;;;;;;;;;;;;;;21.13;31.12;100108.63;5357637;26;19941;-89
2024/04/11 09:50:04;;;;;;;;;;;;;;;21.73;30.50;100109.09;5363729;26;19946;-90
2024/04/11 09:52:34;;;;;;;;;;;;;;;21.72;30.21;100110.91;5384143;26;19930;-90
2024/04/11 09:55:03;;;;;;;;;;;;;;;21.24;30.97;100106.91;5331165;26;19938;-88
2024/04/11 09:57:31;;;;;;;;;;;;;;;22.16;29.53;100113.00;5343403;26;19962;-89
2024/04/11 09:59:57;;;;;;;;;;;;;;;21.64;30.29;100107.22;5304536;26;19940;-91
2024/04/11 10:02:26;;;;;;;;;;;;;;;21.19;30.99;100118.63;5330172;26;19937;-89
2024/04/11 10:04:58;;;;;;;;;;;;;;;22.01;29.42;100118.31;5313879;26;19932;-90
2024/04/11 10:07:33;;;;;;;;;;;;;;;22.42;29.06;100112.19;5355172;26;19969;-89
2024/04/11 10:10:06;;;;;;;;;;;;;;;23.49;27.72;100106.91;5360852;26;19973;-91
2024/04/11 10:12:38;;;;;;;;;;;;;;;22.56;28.58;100104.06;5342321;26;19976;-90
2024/04/11 10:15:18;;;;;;;;;;;;;;;23.62;27.61;100116.91;5357653;26;19996;-89
2024/04/11 10:17:43;;;;;;;;;;;;;;;23.40;28.25;100104.19;5333787;26;19981;-90
2024/04/11 10:20:12;;;;;;;;;;;;;;;23.84;27.27;100105.97;5335980;26;19993;-89
2024/04/11 10:22:44;;;;;;;;;;;;;;;22.68;29.27;100118.63;5331237;26;19930;-89
2024/04/11 10:25:17;;;;;;;;;;;;;;;22.38;28.72;100113.09;5353699;26;19976;-89
2024/04/11 10:27:47;;;;;;;;;;;;;;;23.34;27.73;100104.22;5363988;26;19945;-88
2024/04/11 10:30:17;;;;;;;;;;;;;;;22.58;28.64;100111.34;5380310;26;19937;-89
2024/04/11 10:32:46;;;;;;;;;;;;;;;21.93;29.76;100109.22;5354794;26;19937;-88
2024/04/11 10:35:14;;;;;;;;;;;;;;;23.86;27.78;100104.13;5340431;26;19930;-89
2024/04/11 10:37:40;;;;;;;;;;;;;;;24.01;27.00;100110.47;5366271;26;19934;-90
2024/04/11 10:40:09;;;;;;;;;;;;;;;23.69;27.14;100116.00;5360402;26;19939;-89
2024/04/11 10:42:43;;;;;;;;;;;;;;;23.12;27.93;100119.63;5375358;26;19930;-88
2024/04/11 10:45:17;;;;;;;;;;;;;;;22.85;28.86;100117.72;5378360;26;19936;-89
2024/04/11 10:47:44;;;;;;;;;;;;;;;23.97;26.24;100113.22;5316613;26;19930;-87
2024/04/11 10:50:09;;;;;;;;;;;;;;;24.51;25.08;100105.75;5357720;26;19942;-89
2024/04/11 10:52:37;;;;;;;;;;;;;;;23.84;24.77;100101.44;5378172;26;20073;-87
2024/04/11 10:55:12;;;;;;;;;;;;;;;24.51;24.86;100100.28;5327704;26;19929;-90
2024/04/11 10:57:40;;;;;;;;;;;;;;;25.40;23.15;100094.22;5327001;26;19959;-89
2024/04/11 11:00:10;;;;;;;;;;;;;;;25.84;22.94;100099.28;5353787;26;19930;-91
2024/04/11 11:02:37;;;;;;;;;;;;;;;24.48;22.18;100100.28;5354447;26;20456;-88
2024/04/11 11:05:06;;;;;;;;;;;;;;;25.41;21.81;100096.94;5353769;26;19937;-89
2024/04/11 11:07:31;;;;;;;;;;;;;;;25.72;19.59;100102.09;5330638;26;19937;-88
2024/04/11 11:09:57;;;;;;;;;;;;;;;25.27;24.31;100101.63;5329312;26;19930;-90
2024/04/11 11:12:23;;;;;;;;;;;;;;;24.70;25.00;100096.53;5388090;26;19937;-88
2024/04/11 11:14:49;;;;;;;;;;;;;;;24.13;24.51;100087.69;5327101;26;19967;-87
2024/04/11 11:17:18;;;;;;;;;;;;;;;24.57;24.31;100089.31;5338531;26;19965;-88
2024/04/11 11:19:49;;;;;;;;;;;;;;;25.99;22.59;100081.78;5338045;26;19941;-87
2024/04/11 11:22:37;;;;;;;;;;;;;;;25.40;22.98;100078.72;5389607;26;19929;-88
2024/04/11 11:25:11;;;;;;;;;;;;;;;26.28;22.19;100075.94;5319204;26;19929;-90
2024/04/11 11:27:38;;;;;;;;;;;;;;;22.99;25.24;100080.59;5389363;26;20030;-88
2024/04/11 11:30:15;;;;;;;;;;;;;;;25.63;23.28;100078.47;5314497;26;19940;-90
2024/04/11 11:32:41;;;;;;;;;;;;;;;27.27;21.65;100063.53;5364628;26;19977;-89
2024/04/11 11:35:09;;;;;;;;;;;;;;;26.59;21.98;100065.53;5362015;26;19941;-88
2024/04/11 11:37:35;;;;;;;;;;;;;;;27.24;21.35;100069.06;5362654;26;19974;-90
2024/04/11 11:42:46;;;;;;;;;;;;;;;27.09;21.50;100058.38;5387375;26;19965;-88
2024/04/11 11:45:16;;;;;;;;;;;;;;;26.96;21.28;100052.16;5358245;26;20014;-89
2024/04/11 11:47:45;;;;;;;;;;;;;;;27.74;21.36;100053.56;5356244;26;19941;-91
2024/04/11 11:50:18;;;;;;;;;;;;;;;28.06;20.52;100050.16;5342534;26;19930;-89
2024/04/11 11:52:45;;;;;;;;;;;;;;;28.26;20.58;100041.50;5357459;26;19936;-89
2024/04/11 11:55:19;;;;;;;;;;;;;;;27.35;21.36;100046.94;5360047;26;20003;-89
2024/04/11 11:57:49;;;;;;;;;;;;;;;27.42;21.67;100036.78;5317342;26;19936;-90
2024/04/11 12:00:26;;;;;;;;;;;;;;;27.24;21.04;100043.50;5335479;26;19929;-88
2024/04/11 12:02:56;;;;;;;;;;;;;;;27.10;21.17;100038.25;5363515;26;19929;-89
2024/04/11 12:05:25;;;;;;;;;;;;;;;27.47;20.84;100034.88;5361736;26;19930;-90
2024/04/11 12:07:54;;;;;;;;;;;;;;;27.07;21.69;100033.72;5369215;26;19922;-92
2024/04/11 12:10:29;;;;;;;;;;;;;;;27.50;21.27;100034.78;5370358;26;19966;-89
2024/04/11 12:13:18;;;;;;;;;;;;;;;27.71;21.25;100026.19;5350376;26;19995;-88
2024/04/11 12:15:51;;;;;;;;;;;;;;;28.89;19.63;100019.00;5380049;26;19929;-89
2024/04/11 12:18:23;;;;;;;;;;;;;;;28.45;19.91;100017.31;5358089;26;19983;-90
2024/04/11 12:20:51;;;;;;;;;;;;;;;27.97;20.58;100019.25;5325502;26;20355;-91
2024/04/11 12:23:19;;;;;;;;;;;;;;;27.74;21.13;100019.72;5359307;26;19929;-89
2024/04/11 12:25:44;;;;;;;;;;;;;;;25.29;26.09;100029.63;5355510;26;19945;-88
2024/04/11 12:28:10;;;;;;;;;;;;;;;27.81;20.84;100018.69;5370702;26;19930;-88
2024/04/11 12:30:36;;;;;;;;;;;;;;;28.69;19.99;100017.69;5344667;26;19999;-89
2024/04/11 12:33:05;;;;;;;;;;;;;;;27.39;21.54;100006.69;5351519;26;20316;-90
2024/04/11 12:35:41;;;;;;;;;;;;;;;29.82;19.06;99996.38;5353855;26;19931;-89
2024/04/11 12:38:09;;;;;;;;;;;;;;;28.58;21.25;100001.47;5335965;26;19934;-89
2024/04/11 12:40:34;;;;;;;;;;;;;;;27.98;21.04;100001.88;5340658;26;19999;-89
2024/04/11 12:43:01;;;;;;;;;;;;;;;27.93;21.70;100003.81;5345944;26;20043;-91
2024/04/11 12:45:39;;;;;;;;;;;;;;;28.25;20.55;99997.63;5373672;26;19937;-89
2024/04/11 12:48:05;;;;;;;;;;;;;;;27.46;21.60;100001.06;5323567;26;20356;-88
2024/04/11 12:50:36;;;;;;;;;;;;;;;28.10;21.32;99998.88;5360148;26;20001;-88